sensor_id;sensor_type;location;lat;lon;timestamp;pressure;altitude;pressure_sealevel;temperature
43802;BMP280;29429;51.074;13.764;2022-08-07T00:01:21;100975.94;;;15.45
43802;BMP280;29429;51.074;13.764;2022-08-07T00:04:08;100976.97;;;15.24
43802;BMP280;29429;51.074;13.764;2022-08-07T00:06:38;100979.22;;;15.21
43802;BMP280;29429;51.074;13.764;2022-08-07T00:09:19;100977.38;;;15.21
43802;BMP280;29429;51.074;13.764;2022-08-07T00:11:50;100969.91;;;15.23
43802;BMP280;29429;51.074;13.764;2022-08-07T00:14:26;100972.41;;;15.25
43802;BMP280;29429;51.074;13.764;2022-08-07T00:16:59;100977.75;;;15.25
43802;BMP280;29429;51.074;13.764;2022-08-07T00:19:29;100973.84;;;15.21
43802;BMP280;29429;51.074;13.764;2022-08-07T00:22:17;100974.88;;;15.20
43802;BMP280;29429;51.074;13.764;2022-08-07T00:25:08;100967.22;;;15.17
43802;BMP280;29429;51.074;13.764;2022-08-07T00:27:43;100969.06;;;15.10
43802;BMP280;29429;51.074;13.764;2022-08-07T00:30:20;100970.13;;;15.09
43802;BMP280;29429;51.074;13.764;2022-08-07T00:32:55;100966.97;;;14.99
43802;BMP280;29429;51.074;13.764;2022-08-07T00:35:23;100971.13;;;14.95
43802;BMP280;29429;51.074;13.764;2022-08-07T00:37:50;100967.81;;;14.93
43802;BMP280;29429;51.074;13.764;2022-08-07T00:40:17;100963.22;;;14.87
43802;BMP280;29429;51.074;13.764;2022-08-07T00:43:04;100961.56;;;14.86
43802;BMP280;29429;51.074;13.764;2022-08-07T00:45:37;100969.41;;;14.81
43802;BMP280;29429;51.074;13.764;2022-08-07T00:48:08;100969.81;;;14.78
43802;BMP280;29429;51.074;13.764;2022-08-07T00:50:38;100974.34;;;14.71
43802;BMP280;29429;51.074;13.764;2022-08-07T00:53:19;100969.38;;;14.68
43802;BMP280;29429;51.074;13.764;2022-08-07T00:55:47;100972.66;;;14.63
43802;BMP280;29429;51.074;13.764;2022-08-07T00:58:30;100972.22;;;14.59
43802;BMP280;29429;51.074;13.764;2022-08-07T01:00:58;100964.56;;;14.56
43802;BMP280;29429;51.074;13.764;2022-08-07T01:03:25;100964.78;;;14.55
43802;BMP280;29429;51.074;13.764;2022-08-07T01:06:13;100971.16;;;14.47
43802;BMP280;29429;51.074;13.764;2022-08-07T01:08:45;100971.56;;;14.44
43802;BMP280;29429;51.074;13.764;2022-08-07T01:11:20;100968.00;;;14.37
43802;BMP280;29429;51.074;13.764;2022-08-07T01:14:07;100966.75;;;14.33
43802;BMP280;29429;51.074;13.764;2022-08-07T01:16:35;100964.63;;;14.29
43802;BMP280;29429;51.074;13.764;2022-08-07T01:19:05;100959.59;;;14.19
43802;BMP280;29429;51.074;13.764;2022-08-07T01:21:50;100965.13;;;14.11
43802;BMP280;29429;51.074;13.764;2022-08-07T01:24:21;100964.50;;;14.09
43802;BMP280;29429;51.074;13.764;2022-08-07T01:26:53;100967.00;;;14.11
43802;BMP280;29429;51.074;13.764;2022-08-07T01:29:23;100974.81;;;14.06
43802;BMP280;29429;51.074;13.764;2022-08-07T01:31:57;100968.19;;;14.01
43802;BMP280;29429;51.074;13.764;2022-08-07T01:34:31;100964.09;;;14.06
43802;BMP280;29429;51.074;13.764;2022-08-07T01:37:05;100958.47;;;14.00
43802;BMP280;29429;51.074;13.764;2022-08-07T01:39:37;100959.50;;;13.99
43802;BMP280;29429;51.074;13.764;2022-08-07T01:42:29;100966.09;;;13.97
43802;BMP280;29429;51.074;13.764;2022-08-07T01:45:16;100968.97;;;13.95
43802;BMP280;29429;51.074;13.764;2022-08-07T01:47:53;100968.16;;;13.95
43802;BMP280;29429;51.074;13.764;2022-08-07T01:50:48;100972.25;;;13.91
43802;BMP280;29429;51.074;13.764;2022-08-07T01:53:20;100971.00;;;13.93
43802;BMP280;29429;51.074;13.764;2022-08-07T01:56:16;100969.94;;;13.88
43802;BMP280;29429;51.074;13.764;2022-08-07T01:58:52;100965.63;;;13.87
43802;BMP280;29429;51.074;13.764;2022-08-07T02:01:26;100967.66;;;13.85
43802;BMP280;29429;51.074;13.764;2022-08-07T02:04:31;100966.78;;;13.78
43802;BMP280;29429;51.074;13.764;2022-08-07T02:07:05;100971.06;;;13.72
43802;BMP280;29429;51.074;13.764;2022-08-07T02:09:34;100972.28;;;13.70
43802;BMP280;29429;51.074;13.764;2022-08-07T02:12:23;100968.34;;;13.66
43802;BMP280;29429;51.074;13.764;2022-08-07T02:14:59;100968.97;;;13.68
43802;BMP280;29429;51.074;13.764;2022-08-07T02:17:43;100975.34;;;13.67
43802;BMP280;29429;51.074;13.764;2022-08-07T02:20:17;100975.19;;;13.68
43802;BMP280;29429;51.074;13.764;2022-08-07T02:23:01;100973.72;;;13.66
43802;BMP280;29429;51.074;13.764;2022-08-07T02:25:32;100969.25;;;13.52
43802;BMP280;29429;51.074;13.764;2022-08-07T02:28:22;100982.22;;;13.48
43802;BMP280;29429;51.074;13.764;2022-08-07T02:30:56;100983.19;;;13.40
43802;BMP280;29429;51.074;13.764;2022-08-07T02:33:27;100982.72;;;13.37
43802;BMP280;29429;51.074;13.764;2022-08-07T02:36:17;100982.56;;;13.38
43802;BMP280;29429;51.074;13.764;2022-08-07T02:39:06;100983.38;;;13.39
43802;BMP280;29429;51.074;13.764;2022-08-07T02:41:46;100986.69;;;13.41
43802;BMP280;29429;51.074;13.764;2022-08-07T02:44:24;100978.88;;;13.39
43802;BMP280;29429;51.074;13.764;2022-08-07T02:47:04;100979.63;;;13.33
43802;BMP280;29429;51.074;13.764;2022-08-07T02:49:33;100975.66;;;13.29
43802;BMP280;29429;51.074;13.764;2022-08-07T02:52:40;100976.69;;;13.28
43802;BMP280;29429;51.074;13.764;2022-08-07T02:55:20;100983.25;;;13.26
43802;BMP280;29429;51.074;13.764;2022-08-07T02:58:13;100981.78;;;13.23
43802;BMP280;29429;51.074;13.764;2022-08-07T03:00:43;100980.50;;;13.19
43802;BMP280;29429;51.074;13.764;2022-08-07T03:03:15;100982.94;;;13.14
43802;BMP280;29429;51.074;13.764;2022-08-07T03:05:51;100974.91;;;13.14
43802;BMP280;29429;51.074;13.764;2022-08-07T03:08:21;100974.25;;;13.12
43802;BMP280;29429;51.074;13.764;2022-08-07T03:10:58;100973.44;;;13.12
43802;BMP280;29429;51.074;13.764;2022-08-07T03:13:31;100976.47;;;13.09
43802;BMP280;29429;51.074;13.764;2022-08-07T03:16:17;100977.66;;;13.06
43802;BMP280;29429;51.074;13.764;2022-08-07T03:18:49;100973.19;;;13.07
43802;BMP280;29429;51.074;13.764;2022-08-07T03:21:18;100971.84;;;13.03
43802;BMP280;29429;51.074;13.764;2022-08-07T03:23:50;100965.69;;;13.02
43802;BMP280;29429;51.074;13.764;2022-08-07T03:26:41;100961.72;;;12.98
43802;BMP280;29429;51.074;13.764;2022-08-07T03:29:31;100959.78;;;12.92
43802;BMP280;29429;51.074;13.764;2022-08-07T03:32:07;100970.31;;;12.94
43802;BMP280;29429;51.074;13.764;2022-08-07T03:34:43;100962.09;;;12.95
43802;BMP280;29429;51.074;13.764;2022-08-07T03:37:32;100958.78;;;12.93
43802;BMP280;29429;51.074;13.764;2022-08-07T03:40:24;100962.47;;;12.92
43802;BMP280;29429;51.074;13.764;2022-08-07T03:42:59;100962.59;;;12.84
43802;BMP280;29429;51.074;13.764;2022-08-07T03:45:32;100958.38;;;12.75
43802;BMP280;29429;51.074;13.764;2022-08-07T03:48:09;100957.53;;;12.74
43802;BMP280;29429;51.074;13.764;2022-08-07T03:50:38;100958.00;;;12.78
43802;BMP280;29429;51.074;13.764;2022-08-07T03:53:10;100959.63;;;12.79
43802;BMP280;29429;51.074;13.764;2022-08-07T03:55:41;100960.47;;;12.79
43802;BMP280;29429;51.074;13.764;2022-08-07T03:58:31;100960.06;;;12.76
43802;BMP280;29429;51.074;13.764;2022-08-07T04:01:20;100956.06;;;12.72
43802;BMP280;29429;51.074;13.764;2022-08-07T04:03:49;100952.19;;;12.74
43802;BMP280;29429;51.074;13.764;2022-08-07T04:06:24;100957.06;;;12.71
43802;BMP280;29429;51.074;13.764;2022-08-07T04:09:07;100969.84;;;12.69
43802;BMP280;29429;51.074;13.764;2022-08-07T04:11:45;100973.16;;;12.71
43802;BMP280;29429;51.074;13.764;2022-08-07T04:14:35;100979.34;;;12.71
43802;BMP280;29429;51.074;13.764;2022-08-07T04:17:13;100978.97;;;12.74
43802;BMP280;29429;51.074;13.764;2022-08-07T04:19:51;100971.41;;;12.78
43802;BMP280;29429;51.074;13.764;2022-08-07T04:22:24;100969.97;;;12.82
43802;BMP280;29429;51.074;13.764;2022-08-07T04:24:54;100979.31;;;12.86
43802;BMP280;29429;51.074;13.764;2022-08-07T04:27:24;100974.59;;;12.88
43802;BMP280;29429;51.074;13.764;2022-08-07T04:29:56;100972.53;;;12.90
43802;BMP280;29429;51.074;13.764;2022-08-07T04:32:41;100972.38;;;12.92
43802;BMP280;29429;51.074;13.764;2022-08-07T04:35:14;100971.16;;;12.94
43802;BMP280;29429;51.074;13.764;2022-08-07T04:37:42;100966.06;;;12.99
43802;BMP280;29429;51.074;13.764;2022-08-07T04:40:30;100973.19;;;13.07
43802;BMP280;29429;51.074;13.764;2022-08-07T04:42:58;100976.75;;;13.14
43802;BMP280;29429;51.074;13.764;2022-08-07T04:45:41;100977.44;;;13.22
43802;BMP280;29429;51.074;13.764;2022-08-07T04:49:29;100983.69;;;13.29
43802;BMP280;29429;51.074;13.764;2022-08-07T04:52:21;100981.25;;;13.34
43802;BMP280;29429;51.074;13.764;2022-08-07T04:55:14;100979.50;;;13.41
43802;BMP280;29429;51.074;13.764;2022-08-07T04:58:27;100986.75;;;13.48
43802;BMP280;29429;51.074;13.764;2022-08-07T05:01:33;100983.16;;;13.62
43802;BMP280;29429;51.074;13.764;2022-08-07T05:04:10;100982.00;;;13.71
43802;BMP280;29429;51.074;13.764;2022-08-07T05:07:04;100982.88;;;13.78
43802;BMP280;29429;51.074;13.764;2022-08-07T05:10:06;100979.84;;;13.87
43802;BMP280;29429;51.074;13.764;2022-08-07T05:15:30;100985.34;;;14.07
43802;BMP280;29429;51.074;13.764;2022-08-07T05:18:08;100983.13;;;14.17
43802;BMP280;29429;51.074;13.764;2022-08-07T05:20:45;100984.44;;;14.28
43802;BMP280;29429;51.074;13.764;2022-08-07T05:23:24;100986.16;;;14.35
43802;BMP280;29429;51.074;13.764;2022-08-07T05:26:00;100988.69;;;14.43
43802;BMP280;29429;51.074;13.764;2022-08-07T05:28:56;100984.59;;;14.54
43802;BMP280;29429;51.074;13.764;2022-08-07T05:31:37;100987.53;;;14.66
43802;BMP280;29429;51.074;13.764;2022-08-07T05:34:14;100985.53;;;14.74
43802;BMP280;29429;51.074;13.764;2022-08-07T05:36:49;100988.44;;;14.86
43802;BMP280;29429;51.074;13.764;2022-08-07T05:39:29;100991.78;;;14.94
43802;BMP280;29429;51.074;13.764;2022-08-07T05:42:16;100984.38;;;15.03
43802;BMP280;29429;51.074;13.764;2022-08-07T05:45:00;100989.16;;;15.14
43802;BMP280;29429;51.074;13.764;2022-08-07T05:47:41;100989.56;;;15.24
43802;BMP280;29429;51.074;13.764;2022-08-07T05:50:35;100996.81;;;15.37
43802;BMP280;29429;51.074;13.764;2022-08-07T05:53:09;100990.63;;;15.43
43802;BMP280;29429;51.074;13.764;2022-08-07T05:55:57;100997.91;;;15.55
43802;BMP280;29429;51.074;13.764;2022-08-07T05:58:35;100998.94;;;15.67
43802;BMP280;29429;51.074;13.764;2022-08-07T06:01:10;100993.16;;;15.77
43802;BMP280;29429;51.074;13.764;2022-08-07T06:03:53;100990.66;;;15.89
43802;BMP280;29429;51.074;13.764;2022-08-07T06:06:34;100991.06;;;15.99
43802;BMP280;29429;51.074;13.764;2022-08-07T06:09:05;100993.09;;;16.10
43802;BMP280;29429;51.074;13.764;2022-08-07T06:11:37;100989.16;;;16.19
43802;BMP280;29429;51.074;13.764;2022-08-07T06:14:05;100990.16;;;16.31
43802;BMP280;29429;51.074;13.764;2022-08-07T06:16:51;100977.75;;;16.30
43802;BMP280;29429;51.074;13.764;2022-08-07T06:19:34;100983.28;;;16.41
43802;BMP280;29429;51.074;13.764;2022-08-07T06:22:23;100984.72;;;16.57
43802;BMP280;29429;51.074;13.764;2022-08-07T06:25:04;100978.03;;;16.66
43802;BMP280;29429;51.074;13.764;2022-08-07T06:27:36;100983.38;;;16.79
43802;BMP280;29429;51.074;13.764;2022-08-07T06:30:23;100973.34;;;16.93
43802;BMP280;29429;51.074;13.764;2022-08-07T06:33:13;100977.06;;;16.98
43802;BMP280;29429;51.074;13.764;2022-08-07T06:35:45;100969.56;;;17.00
43802;BMP280;29429;51.074;13.764;2022-08-07T06:38:33;100967.03;;;17.05
43802;BMP280;29429;51.074;13.764;2022-08-07T06:41:10;100979.41;;;17.20
43802;BMP280;29429;51.074;13.764;2022-08-07T06:43:42;100974.78;;;17.27
43802;BMP280;29429;51.074;13.764;2022-08-07T06:46:16;100975.09;;;17.43
43802;BMP280;29429;51.074;13.764;2022-08-07T06:48:59;100975.84;;;17.57
43802;BMP280;29429;51.074;13.764;2022-08-07T06:51:33;100969.13;;;17.66
43802;BMP280;29429;51.074;13.764;2022-08-07T06:54:17;100967.53;;;17.83
43802;BMP280;29429;51.074;13.764;2022-08-07T06:57:09;100967.53;;;18.01
43802;BMP280;29429;51.074;13.764;2022-08-07T06:59:41;100967.41;;;18.14
43802;BMP280;29429;51.074;13.764;2022-08-07T07:02:31;100959.53;;;18.31
43802;BMP280;29429;51.074;13.764;2022-08-07T07:05:20;100961.44;;;18.49
43802;BMP280;29429;51.074;13.764;2022-08-07T07:08:07;100956.09;;;18.60
43802;BMP280;29429;51.074;13.764;2022-08-07T07:10:39;100958.84;;;18.72
43802;BMP280;29429;51.074;13.764;2022-08-07T07:13:40;100950.78;;;18.83
43802;BMP280;29429;51.074;13.764;2022-08-07T07:16:33;100948.50;;;18.99
43802;BMP280;29429;51.074;13.764;2022-08-07T07:19:24;100948.28;;;19.12
43802;BMP280;29429;51.074;13.764;2022-08-07T07:22:14;100944.47;;;19.19
43802;BMP280;29429;51.074;13.764;2022-08-07T07:25:05;100944.25;;;19.32
43802;BMP280;29429;51.074;13.764;2022-08-07T07:28:20;100935.69;;;19.47
43802;BMP280;29429;51.074;13.764;2022-08-07T07:31:22;100934.06;;;19.58
43802;BMP280;29429;51.074;13.764;2022-08-07T07:34:02;100928.66;;;19.69
43802;BMP280;29429;51.074;13.764;2022-08-07T07:36:33;100933.84;;;19.82
43802;BMP280;29429;51.074;13.764;2022-08-07T07:39:08;100920.63;;;19.86
43802;BMP280;29429;51.074;13.764;2022-08-07T07:41:39;100923.59;;;19.96
43802;BMP280;29429;51.074;13.764;2022-08-07T07:44:29;100920.03;;;20.07
43802;BMP280;29429;51.074;13.764;2022-08-07T07:47:00;100918.97;;;20.20
43802;BMP280;29429;51.074;13.764;2022-08-07T07:49:50;100904.81;;;20.29
43802;BMP280;29429;51.074;13.764;2022-08-07T07:52:40;100908.91;;;20.43
43802;BMP280;29429;51.074;13.764;2022-08-07T07:55:08;100915.34;;;20.54
43802;BMP280;29429;51.074;13.764;2022-08-07T07:57:39;100913.41;;;20.66
43802;BMP280;29429;51.074;13.764;2022-08-07T08:00:19;100904.75;;;20.81
43802;BMP280;29429;51.074;13.764;2022-08-07T08:03:08;100897.00;;;20.89
43802;BMP280;29429;51.074;13.764;2022-08-07T08:05:56;100896.31;;;20.94
43802;BMP280;29429;51.074;13.764;2022-08-07T08:08:27;100896.53;;;20.92
43802;BMP280;29429;51.074;13.764;2022-08-07T08:11:07;100894.81;;;20.86
43802;BMP280;29429;51.074;13.764;2022-08-07T08:13:47;100900.41;;;20.96
43802;BMP280;29429;51.074;13.764;2022-08-07T08:16:33;100896.00;;;21.23
43802;BMP280;29429;51.074;13.764;2022-08-07T08:19:04;100887.72;;;21.47
43802;BMP280;29429;51.074;13.764;2022-08-07T08:21:48;100895.56;;;21.81
43802;BMP280;29429;51.074;13.764;2022-08-07T08:24:42;100882.16;;;22.13
43802;BMP280;29429;51.074;13.764;2022-08-07T08:27:52;100885.00;;;22.45
43802;BMP280;29429;51.074;13.764;2022-08-07T08:30:24;100885.81;;;22.67
43802;BMP280;29429;51.074;13.764;2022-08-07T08:32:56;100875.66;;;22.84
43802;BMP280;29429;51.074;13.764;2022-08-07T08:35:26;100876.28;;;22.96
43802;BMP280;29429;51.074;13.764;2022-08-07T08:38:17;100871.00;;;23.17
43802;BMP280;29429;51.074;13.764;2022-08-07T08:41:17;100866.66;;;23.47
43802;BMP280;29429;51.074;13.764;2022-08-07T08:44:13;100882.97;;;23.84
43802;BMP280;29429;51.074;13.764;2022-08-07T08:50:16;100877.78;;;24.40
43802;BMP280;29429;51.074;13.764;2022-08-07T08:53:15;100875.69;;;24.62
43802;BMP280;29429;51.074;13.764;2022-08-07T08:56:05;100869.19;;;24.88
43802;BMP280;29429;51.074;13.764;2022-08-07T09:01:59;100856.09;;;25.00
43802;BMP280;29429;51.074;13.764;2022-08-07T09:04:59;100858.25;;;25.13
43802;BMP280;29429;51.074;13.764;2022-08-07T09:07:50;100854.97;;;25.21
43802;BMP280;29429;51.074;13.764;2022-08-07T09:10:43;100854.69;;;25.18
43802;BMP280;29429;51.074;13.764;2022-08-07T09:26:17;100851.44;;;24.03
43802;BMP280;29429;51.074;13.764;2022-08-07T09:28:58;100852.66;;;23.76
43802;BMP280;29429;51.074;13.764;2022-08-07T09:32:16;100851.22;;;23.63
43802;BMP280;29429;51.074;13.764;2022-08-07T09:38:48;100836.06;;;23.82
43802;BMP280;29429;51.074;13.764;2022-08-07T09:41:43;100838.69;;;23.67
43802;BMP280;29429;51.074;13.764;2022-08-07T09:44:48;100833.84;;;23.69
43802;BMP280;29429;51.074;13.764;2022-08-07T09:53:31;100816.88;;;23.62
43802;BMP280;29429;51.074;13.764;2022-08-07T09:56:37;100811.03;;;23.85
43802;BMP280;29429;51.074;13.764;2022-08-07T10:11:37;100797.38;;;25.03
43802;BMP280;29429;51.074;13.764;2022-08-07T10:14:44;100779.59;;;25.25
43802;BMP280;29429;51.074;13.764;2022-08-07T10:21:05;100765.59;;;25.57
43802;BMP280;29429;51.074;13.764;2022-08-07T10:27:24;100772.66;;;25.68
43802;BMP280;29429;51.074;13.764;2022-08-07T10:30:17;100759.50;;;25.80
43802;BMP280;29429;51.074;13.764;2022-08-07T10:40:15;100739.41;;;26.05
43802;BMP280;29429;51.074;13.764;2022-08-07T10:43:06;100746.22;;;26.13
43802;BMP280;29429;51.074;13.764;2022-08-07T10:45:48;100740.75;;;26.08
43802;BMP280;29429;51.074;13.764;2022-08-07T10:48:52;100736.09;;;26.13
43802;BMP280;29429;51.074;13.764;2022-08-07T10:52:02;100736.06;;;26.08
43802;BMP280;29429;51.074;13.764;2022-08-07T10:55:13;100727.91;;;26.03
43802;BMP280;29429;51.074;13.764;2022-08-07T10:58:19;100727.72;;;25.89
43802;BMP280;29429;51.074;13.764;2022-08-07T11:07:44;100716.63;;;25.66
43802;BMP280;29429;51.074;13.764;2022-08-07T11:10:50;100720.47;;;25.65
43802;BMP280;29429;51.074;13.764;2022-08-07T11:17:13;100711.13;;;25.71
43802;BMP280;29429;51.074;13.764;2022-08-07T11:20:47;100715.53;;;25.67
43802;BMP280;29429;51.074;13.764;2022-08-07T11:23:34;100706.81;;;25.60
43802;BMP280;29429;51.074;13.764;2022-08-07T11:26:27;100703.53;;;25.58
43802;BMP280;29429;51.074;13.764;2022-08-07T11:29:14;100705.72;;;25.61
43802;BMP280;29429;51.074;13.764;2022-08-07T11:32:15;100712.00;;;25.61
43802;BMP280;29429;51.074;13.764;2022-08-07T11:34:59;100700.25;;;25.61
43802;BMP280;29429;51.074;13.764;2022-08-07T11:38:29;100692.59;;;25.63
43802;BMP280;29429;51.074;13.764;2022-08-07T11:41:03;100684.97;;;25.55
43802;BMP280;29429;51.074;13.764;2022-08-07T11:43:42;100681.06;;;25.71
43802;BMP280;29429;51.074;13.764;2022-08-07T11:49:53;100685.06;;;25.88
43802;BMP280;29429;51.074;13.764;2022-08-07T11:59:32;100658.78;;;25.92
43802;BMP280;29429;51.074;13.764;2022-08-07T12:05:34;100642.63;;;25.96
43802;BMP280;29429;51.074;13.764;2022-08-07T12:08:21;100647.22;;;26.00
43802;BMP280;29429;51.074;13.764;2022-08-07T12:12:11;100644.28;;;25.97
43802;BMP280;29429;51.074;13.764;2022-08-07T12:14:28;100645.47;;;25.81
43802;BMP280;29429;51.074;13.764;2022-08-07T12:17:04;100650.88;;;25.91
43802;BMP280;29429;51.074;13.764;2022-08-07T12:20:03;100646.72;;;25.98
43802;BMP280;29429;51.074;13.764;2022-08-07T12:23:18;100647.28;;;25.95
43802;BMP280;29429;51.074;13.764;2022-08-07T12:26:23;100637.75;;;25.88
43802;BMP280;29429;51.074;13.764;2022-08-07T12:29:22;100633.38;;;25.87
43802;BMP280;29429;51.074;13.764;2022-08-07T12:35:09;100628.25;;;25.80
43802;BMP280;29429;51.074;13.764;2022-08-07T12:37:40;100642.38;;;25.92
43802;BMP280;29429;51.074;13.764;2022-08-07T12:40:33;100627.88;;;25.97
43802;BMP280;29429;51.074;13.764;2022-08-07T12:43:19;100623.78;;;25.94
43802;BMP280;29429;51.074;13.764;2022-08-07T12:52:20;100624.56;;;25.95
43802;BMP280;29429;51.074;13.764;2022-08-07T12:55:07;100616.31;;;26.00
43802;BMP280;29429;51.074;13.764;2022-08-07T12:57:46;100617.41;;;26.04
43802;BMP280;29429;51.074;13.764;2022-08-07T13:01:05;100615.72;;;26.08
43802;BMP280;29429;51.074;13.764;2022-08-07T13:10:46;100604.53;;;26.05
43802;BMP280;29429;51.074;13.764;2022-08-07T13:13:35;100611.38;;;26.07
43802;BMP280;29429;51.074;13.764;2022-08-07T13:16:36;100602.84;;;26.09
43802;BMP280;29429;51.074;13.764;2022-08-07T13:22:28;100604.59;;;25.99
43802;BMP280;29429;51.074;13.764;2022-08-07T13:25:18;100588.44;;;25.98
43802;BMP280;29429;51.074;13.764;2022-08-07T13:28:04;100596.19;;;25.91
43802;BMP280;29429;51.074;13.764;2022-08-07T13:30:58;100590.66;;;25.96
43802;BMP280;29429;51.074;13.764;2022-08-07T13:34:01;100578.63;;;25.97
43802;BMP280;29429;51.074;13.764;2022-08-07T13:36:57;100577.00;;;25.96
43802;BMP280;29429;51.074;13.764;2022-08-07T13:45:17;100564.91;;;25.63
43802;BMP280;29429;51.074;13.764;2022-08-07T13:48:06;100560.81;;;25.66
43802;BMP280;29429;51.074;13.764;2022-08-07T13:50:40;100564.63;;;25.70
43802;BMP280;29429;51.074;13.764;2022-08-07T13:53:33;100563.50;;;25.71
43802;BMP280;29429;51.074;13.764;2022-08-07T13:56:24;100565.47;;;25.65
43802;BMP280;29429;51.074;13.764;2022-08-07T13:59:19;100559.19;;;25.65
43802;BMP280;29429;51.074;13.764;2022-08-07T14:01:53;100552.34;;;25.67
43802;BMP280;29429;51.074;13.764;2022-08-07T14:04:36;100553.34;;;25.76
43802;BMP280;29429;51.074;13.764;2022-08-07T14:07:20;100540.19;;;25.83
43802;BMP280;29429;51.074;13.764;2022-08-07T14:09:57;100534.94;;;25.87
43802;BMP280;29429;51.074;13.764;2022-08-07T14:12:54;100533.84;;;25.88
43802;BMP280;29429;51.074;13.764;2022-08-07T14:15:38;100541.56;;;25.81
43802;BMP280;29429;51.074;13.764;2022-08-07T14:18:14;100541.00;;;25.84
43802;BMP280;29429;51.074;13.764;2022-08-07T14:21:12;100538.59;;;25.77
43802;BMP280;29429;51.074;13.764;2022-08-07T14:24:04;100543.63;;;25.65
43802;BMP280;29429;51.074;13.764;2022-08-07T14:26:40;100541.16;;;25.64
43802;BMP280;29429;51.074;13.764;2022-08-07T14:29:22;100536.25;;;25.61
43802;BMP280;29429;51.074;13.764;2022-08-07T14:32:12;100537.88;;;25.62
43802;BMP280;29429;51.074;13.764;2022-08-07T14:34:45;100540.88;;;25.65
43802;BMP280;29429;51.074;13.764;2022-08-07T14:37:18;100528.81;;;25.66
43802;BMP280;29429;51.074;13.764;2022-08-07T14:40:01;100519.28;;;25.64
43802;BMP280;29429;51.074;13.764;2022-08-07T14:43:08;100521.19;;;25.63
43802;BMP280;29429;51.074;13.764;2022-08-07T14:45:58;100535.69;;;25.64
43802;BMP280;29429;51.074;13.764;2022-08-07T14:48:30;100529.13;;;25.65
43802;BMP280;29429;51.074;13.764;2022-08-07T14:51:10;100536.78;;;25.63
43802;BMP280;29429;51.074;13.764;2022-08-07T14:54:00;100538.97;;;25.61
43802;BMP280;29429;51.074;13.764;2022-08-07T14:56:49;100533.56;;;25.56
43802;BMP280;29429;51.074;13.764;2022-08-07T14:59:22;100529.47;;;25.53
43802;BMP280;29429;51.074;13.764;2022-08-07T15:02:16;100524.31;;;25.52
43802;BMP280;29429;51.074;13.764;2022-08-07T15:05:02;100525.69;;;25.44
43802;BMP280;29429;51.074;13.764;2022-08-07T15:07:31;100523.22;;;25.42
43802;BMP280;29429;51.074;13.764;2022-08-07T15:10:24;100528.44;;;25.39
43802;BMP280;29429;51.074;13.764;2022-08-07T15:13:05;100529.81;;;25.36
43802;BMP280;29429;51.074;13.764;2022-08-07T15:15:41;100522.22;;;25.28
43802;BMP280;29429;51.074;13.764;2022-08-07T15:18:44;100520.03;;;25.30
43802;BMP280;29429;51.074;13.764;2022-08-07T15:21:30;100520.03;;;25.30
43802;BMP280;29429;51.074;13.764;2022-08-07T15:24:28;100517.84;;;25.32
43802;BMP280;29429;51.074;13.764;2022-08-07T15:27:21;100520.88;;;25.31
43802;BMP280;29429;51.074;13.764;2022-08-07T15:30:01;100521.09;;;25.34
43802;BMP280;29429;51.074;13.764;2022-08-07T15:32:47;100512.66;;;25.31
43802;BMP280;29429;51.074;13.764;2022-08-07T15:35:35;100508.03;;;25.26
43802;BMP280;29429;51.074;13.764;2022-08-07T15:38:29;100514.06;;;25.23
43802;BMP280;29429;51.074;13.764;2022-08-07T15:41:22;100515.72;;;25.19
43802;BMP280;29429;51.074;13.764;2022-08-07T15:44:12;100512.75;;;25.16
43802;BMP280;29429;51.074;13.764;2022-08-07T15:46:45;100507.84;;;25.13
43802;BMP280;29429;51.074;13.764;2022-08-07T15:49:25;100502.63;;;25.16
43802;BMP280;29429;51.074;13.764;2022-08-07T15:52:21;100503.47;;;25.17
43802;BMP280;29429;51.074;13.764;2022-08-07T15:55:01;100507.00;;;25.17
43802;BMP280;29429;51.074;13.764;2022-08-07T15:57:32;100509.19;;;25.20
43802;BMP280;29429;51.074;13.764;2022-08-07T16:00:16;100501.25;;;25.19
43802;BMP280;29429;51.074;13.764;2022-08-07T16:03:21;100494.97;;;25.18
43802;BMP280;29429;51.074;13.764;2022-08-07T16:06:10;100498.25;;;25.15
43802;BMP280;29429;51.074;13.764;2022-08-07T16:08:45;100499.88;;;25.21
43802;BMP280;29429;51.074;13.764;2022-08-07T16:18:43;100491.41;;;25.18
43802;BMP280;29429;51.074;13.764;2022-08-07T16:21:45;100487.34;;;25.20
43802;BMP280;29429;51.074;13.764;2022-08-07T16:24:50;100492.59;;;25.07
43802;BMP280;29429;51.074;13.764;2022-08-07T16:30:14;100497.69;;;25.18
43802;BMP280;29429;51.074;13.764;2022-08-07T16:33:07;100495.00;;;25.13
43802;BMP280;29429;51.074;13.764;2022-08-07T16:36:41;100496.13;;;25.12
43802;BMP280;29429;51.074;13.764;2022-08-07T16:43:34;100495.53;;;25.15
43802;BMP280;29429;51.074;13.764;2022-08-07T16:53:41;100489.53;;;25.13
43802;BMP280;29429;51.074;13.764;2022-08-07T16:56:48;100485.19;;;25.12
43802;BMP280;29429;51.074;13.764;2022-08-07T16:59:59;100490.66;;;25.12
43802;BMP280;29429;51.074;13.764;2022-08-07T17:05:56;100489.56;;;25.08
43802;BMP280;29429;51.074;13.764;2022-08-07T17:09:13;100487.41;;;25.05
43802;BMP280;29429;51.074;13.764;2022-08-07T17:15:24;100485.56;;;24.96
43802;BMP280;29429;51.074;13.764;2022-08-07T17:21:03;100491.56;;;24.93
43802;BMP280;29429;51.074;13.764;2022-08-07T17:24:16;100489.69;;;24.88
43802;BMP280;29429;51.074;13.764;2022-08-07T17:33:15;100491.38;;;24.69
43802;BMP280;29429;51.074;13.764;2022-08-07T17:36:16;100485.41;;;24.62
43802;BMP280;29429;51.074;13.764;2022-08-07T17:39:03;100490.34;;;24.55
43802;BMP280;29429;51.074;13.764;2022-08-07T17:42:10;100501.28;;;24.45
43802;BMP280;29429;51.074;13.764;2022-08-07T17:47:34;100489.88;;;24.22
43802;BMP280;29429;51.074;13.764;2022-08-07T17:50:21;100500.81;;;24.17